createdAt,value
2019-03-22T00:01:13.115Z,9.50
2019-03-22T00:03:41.478Z,8.63
2019-03-22T00:06:09.896Z,8.23
2019-03-22T00:08:38.333Z,8.40
2019-03-22T00:11:06.867Z,11.30
2019-03-22T00:13:35.242Z,12.83
2019-03-22T00:16:03.625Z,9.60
2019-03-22T00:18:32.042Z,11.80
2019-03-22T00:21:00.448Z,10.50
2019-03-22T00:23:28.815Z,9.90
2019-03-22T00:25:57.280Z,9.00
2019-03-22T00:28:25.701Z,8.03
2019-03-22T00:30:54.043Z,8.90
2019-03-22T00:33:22.645Z,8.93
2019-03-22T00:35:50.909Z,8.73
2019-03-22T00:38:19.302Z,12.60
2019-03-22T00:40:47.725Z,10.30
2019-03-22T00:43:16.096Z,8.67
2019-03-22T00:45:44.460Z,8.23
2019-03-22T00:48:12.849Z,14.00
2019-03-22T00:50:41.153Z,10.50
2019-03-22T00:53:09.596Z,8.20
2019-03-22T00:55:37.888Z,8.53
2019-03-22T00:58:06.228Z,9.07
2019-03-22T01:00:34.621Z,13.00
2019-03-22T01:03:03.048Z,9.60
2019-03-22T01:05:31.403Z,7.37
2019-03-22T01:07:59.839Z,10.50
2019-03-22T01:10:28.311Z,9.83
2019-03-22T01:12:56.896Z,7.67
2019-03-22T01:15:25.268Z,8.90
2019-03-22T01:17:53.598Z,8.20
2019-03-22T01:20:21.958Z,7.97
2019-03-22T01:22:50.409Z,9.00
2019-03-22T01:25:18.724Z,8.87
2019-03-22T01:27:47.130Z,9.10
2019-03-22T01:30:15.611Z,8.83
2019-03-22T01:32:44.049Z,8.63
2019-03-22T01:35:12.374Z,9.30
2019-03-22T01:37:40.882Z,8.27
2019-03-22T01:40:09.650Z,12.73
2019-03-22T01:42:37.987Z,8.57
2019-03-22T01:45:07.356Z,12.27
2019-03-22T01:47:35.774Z,8.03
2019-03-22T01:50:04.217Z,8.53
2019-03-22T01:52:32.619Z,9.77
2019-03-22T01:55:00.960Z,7.40
2019-03-22T01:57:29.361Z,7.43
2019-03-22T01:59:57.721Z,7.50
2019-03-22T02:02:26.061Z,8.30
2019-03-22T02:04:54.650Z,10.07
2019-03-22T02:07:23.147Z,8.77
2019-03-22T02:09:51.443Z,7.63
2019-03-22T02:12:19.934Z,9.17
2019-03-22T02:14:48.387Z,8.70
2019-03-22T02:17:16.812Z,7.30
2019-03-22T02:19:45.274Z,8.13
2019-03-22T02:22:13.629Z,7.50
2019-03-22T02:24:45.102Z,9.83
2019-03-22T02:27:13.490Z,11.00
2019-03-22T02:29:44.351Z,8.13
2019-03-22T02:32:11.927Z,12.10
2019-03-22T02:34:40.382Z,8.40
2019-03-22T02:37:08.797Z,7.63
2019-03-22T02:39:37.247Z,10.40
2019-03-22T02:42:05.639Z,10.50
2019-03-22T02:44:34.094Z,8.00
2019-03-22T02:47:02.452Z,9.07
2019-03-22T02:49:30.821Z,7.50
2019-03-22T02:51:59.283Z,8.83
2019-03-22T02:54:27.616Z,8.90
2019-03-22T02:56:55.889Z,9.40
2019-03-22T02:59:24.291Z,9.83
2019-03-22T03:01:52.666Z,10.37
2019-03-22T03:04:20.990Z,7.97
2019-03-22T03:06:49.288Z,11.13
2019-03-22T03:09:17.665Z,11.47
2019-03-22T03:11:46.088Z,7.60
2019-03-22T03:14:14.368Z,8.60
2019-03-22T03:16:43.019Z,10.37
2019-03-22T03:19:11.329Z,8.57
2019-03-22T03:21:39.884Z,7.40
2019-03-22T03:24:08.280Z,8.10
2019-03-22T03:26:36.842Z,8.80
2019-03-22T03:29:05.208Z,9.23
2019-03-22T03:31:33.675Z,8.33
2019-03-22T03:34:02.266Z,7.50
2019-03-22T03:36:30.691Z,8.87
2019-03-22T03:38:59.065Z,7.43
2019-03-22T03:41:27.445Z,6.93
2019-03-22T03:43:55.838Z,10.10
2019-03-22T03:46:24.246Z,10.83
2019-03-22T03:48:52.609Z,7.40
2019-03-22T03:51:21.036Z,9.30
2019-03-22T03:53:49.405Z,8.13
2019-03-22T03:56:17.789Z,9.60
2019-03-22T03:58:52.346Z,8.07
2019-03-22T04:01:16.253Z,7.27
2019-03-22T04:03:44.624Z,8.80
2019-03-22T04:06:13.004Z,8.33
2019-03-22T04:08:41.359Z,10.10
2019-03-22T04:11:09.773Z,9.47
2019-03-22T04:13:38.159Z,9.67
2019-03-22T04:16:06.488Z,9.27
2019-03-22T04:18:34.919Z,7.57
2019-03-22T04:21:03.313Z,8.07
2019-03-22T04:23:31.711Z,7.70
2019-03-22T04:26:00.061Z,9.30
2019-03-22T04:28:28.529Z,8.73
2019-03-22T04:30:56.893Z,7.93
2019-03-22T04:33:25.276Z,7.67
2019-03-22T04:35:53.684Z,8.93
2019-03-22T04:38:22.064Z,7.60
2019-03-22T04:40:50.448Z,7.90
2019-03-22T04:43:18.823Z,9.10
2019-03-22T04:45:47.877Z,7.17
2019-03-22T04:48:19.073Z,9.47
2019-03-22T04:50:48.745Z,7.40
2019-03-22T04:53:21.651Z,7.70
2019-03-22T04:55:51.628Z,7.40
2019-03-22T04:58:20.637Z,8.97
2019-03-22T05:00:49.705Z,10.23
2019-03-22T05:03:18.487Z,9.60
2019-03-22T05:05:47.333Z,9.13
2019-03-22T05:08:16.121Z,8.60
2019-03-22T05:10:45.011Z,8.93
2019-03-22T05:13:14.669Z,6.97
2019-03-22T05:15:43.581Z,11.70
2019-03-22T05:18:12.165Z,8.70
2019-03-22T05:20:41.799Z,8.80
2019-03-22T05:23:11.643Z,8.70
2019-03-22T05:25:40.580Z,10.47
2019-03-22T05:28:10.825Z,9.57
2019-03-22T05:31:00.843Z,10.30
2019-03-22T05:33:29.264Z,9.17
2019-03-22T05:35:57.606Z,8.23
2019-03-22T05:38:26.087Z,9.13
2019-03-22T05:40:54.507Z,9.33
2019-03-22T05:43:22.838Z,11.80
2019-03-22T05:45:51.209Z,12.17
2019-03-22T05:48:19.617Z,9.77
2019-03-22T05:50:48.070Z,10.90
2019-03-22T05:53:16.442Z,11.30
2019-03-22T05:55:44.798Z,9.90
2019-03-22T05:58:13.151Z,8.33
2019-03-22T06:00:41.554Z,14.77
2019-03-22T06:03:09.896Z,10.47
2019-03-22T06:05:38.308Z,9.00
2019-03-22T06:08:06.699Z,12.40
2019-03-22T06:10:35.086Z,12.93
2019-03-22T06:13:03.512Z,8.03
2019-03-22T06:15:31.875Z,11.00
2019-03-22T06:18:00.325Z,14.47
2019-03-22T06:20:28.682Z,11.50
2019-03-22T06:22:57.060Z,9.17
2019-03-22T06:25:26.621Z,9.13
2019-03-22T06:27:55.108Z,8.33
2019-03-22T06:30:23.455Z,11.83
2019-03-22T06:32:51.695Z,9.93
2019-03-22T06:35:28.940Z,9.93
2019-03-22T06:37:57.333Z,9.10
2019-03-22T06:40:25.821Z,10.97
2019-03-22T06:42:54.494Z,8.50
2019-03-22T06:45:22.987Z,9.40
2019-03-22T06:47:51.351Z,10.10
2019-03-22T06:50:22.571Z,10.17
2019-03-22T06:52:52.025Z,12.77
2019-03-22T06:55:20.603Z,9.07
2019-03-22T06:57:51.898Z,10.07
2019-03-22T07:00:20.301Z,10.00
2019-03-22T07:02:48.617Z,11.30
2019-03-22T07:05:17.006Z,11.40
2019-03-22T07:07:45.345Z,9.73
2019-03-22T07:10:13.830Z,11.87
2019-03-22T07:12:42.239Z,10.30
2019-03-22T07:15:10.594Z,13.40
2019-03-22T07:17:39.072Z,12.80
2019-03-22T07:20:08.250Z,11.90
2019-03-22T07:22:36.624Z,8.80
2019-03-22T07:25:05.523Z,9.77
2019-03-22T07:27:33.916Z,9.57
2019-03-22T07:30:02.432Z,14.83
2019-03-22T07:32:30.881Z,11.20
2019-03-22T07:34:59.339Z,10.70
2019-03-22T07:37:27.769Z,10.90
2019-03-22T07:39:56.178Z,9.60
2019-03-22T07:42:24.563Z,10.50
2019-03-22T07:44:52.973Z,9.97
2019-03-22T07:47:21.439Z,8.80
2019-03-22T07:49:49.886Z,8.27
2019-03-22T07:52:18.285Z,11.73
2019-03-22T07:54:46.668Z,9.47
2019-03-22T07:57:15.052Z,12.20
2019-03-22T07:59:43.432Z,8.33
2019-03-22T08:02:11.824Z,8.90
2019-03-22T08:04:40.234Z,9.50
2019-03-22T08:07:08.557Z,7.90
2019-03-22T08:09:36.955Z,9.60
2019-03-22T08:12:05.335Z,9.70
2019-03-22T08:14:33.719Z,9.60
2019-03-22T08:17:02.235Z,16.33
2019-03-22T08:19:30.648Z,11.70
2019-03-22T08:21:58.987Z,10.87
2019-03-22T08:24:27.442Z,10.40
2019-03-22T08:26:55.831Z,9.17
2019-03-22T08:29:24.202Z,10.00
2019-03-22T08:31:52.584Z,9.63
2019-03-22T08:34:21.044Z,9.87
2019-03-22T08:36:49.424Z,10.37
2019-03-22T08:39:17.817Z,9.50
2019-03-22T08:41:46.211Z,10.00
2019-03-22T08:44:14.560Z,10.10
2019-03-22T08:46:44.996Z,11.10
2019-03-22T08:49:13.086Z,10.57
2019-03-22T08:51:41.654Z,9.93
2019-03-22T08:54:09.997Z,10.77
2019-03-22T08:56:38.369Z,11.80
2019-03-22T08:59:06.798Z,9.37
2019-03-22T09:01:35.189Z,9.77
2019-03-22T09:04:03.740Z,10.50
2019-03-22T09:06:32.148Z,9.93
2019-03-22T09:09:00.493Z,9.77
2019-03-22T09:11:28.834Z,10.20
2019-03-22T09:13:57.243Z,13.00
2019-03-22T09:16:25.676Z,9.90
2019-03-22T09:18:54.001Z,11.97
2019-03-22T09:21:22.461Z,11.07
2019-03-22T09:23:50.801Z,10.27
2019-03-22T09:26:20.104Z,9.60
2019-03-22T09:28:48.502Z,9.50
2019-03-22T09:31:16.886Z,9.77
2019-03-22T09:33:45.290Z,8.70
2019-03-22T09:36:13.638Z,10.93
2019-03-22T09:38:42.138Z,9.77
2019-03-22T09:41:10.599Z,10.30
2019-03-22T09:43:39.056Z,11.00
2019-03-22T09:46:07.385Z,9.70
2019-03-22T09:48:35.833Z,10.03
2019-03-22T09:51:04.177Z,11.37
2019-03-22T09:53:32.591Z,10.93
2019-03-22T09:56:00.967Z,10.83
2019-03-22T09:58:29.354Z,10.40
2019-03-22T10:00:57.900Z,11.20
2019-03-22T10:03:26.338Z,11.90
2019-03-22T10:05:54.726Z,12.00
2019-03-22T10:08:23.229Z,11.00
2019-03-22T10:10:51.805Z,13.70
2019-03-22T10:13:20.268Z,11.70
2019-03-22T10:15:48.729Z,12.43
2019-03-22T10:18:17.201Z,12.80
2019-03-22T10:20:45.628Z,12.30
2019-03-22T10:23:14.096Z,13.27
2019-03-22T10:25:42.500Z,13.00
2019-03-22T10:28:10.872Z,13.57
2019-03-22T10:30:39.332Z,11.37
2019-03-22T10:33:07.694Z,13.10
2019-03-22T10:35:36.089Z,12.73
2019-03-22T10:38:06.316Z,12.23
2019-03-22T10:40:34.637Z,12.80
2019-03-22T10:43:02.939Z,13.77
2019-03-22T10:45:31.318Z,13.47
2019-03-22T10:47:59.793Z,13.00
2019-03-22T10:50:28.231Z,13.73
2019-03-22T10:52:56.590Z,13.53
2019-03-22T10:55:30.138Z,15.23
2019-03-22T10:57:55.619Z,12.07
2019-03-22T11:00:24.063Z,13.50
2019-03-22T11:02:52.470Z,13.33
2019-03-22T11:05:20.898Z,12.90
2019-03-22T11:07:49.342Z,14.07
2019-03-22T11:10:17.721Z,13.97
2019-03-22T11:12:46.075Z,12.97
2019-03-22T11:15:14.617Z,14.57
2019-03-22T11:17:43.072Z,14.50
2019-03-22T11:20:13.355Z,14.00
2019-03-22T11:22:41.804Z,14.27
2019-03-22T11:25:10.389Z,15.87
2019-03-22T11:27:38.879Z,17.30
2019-03-22T11:30:07.778Z,17.43
2019-03-22T11:32:36.224Z,16.70
2019-03-22T11:35:05.486Z,17.00
2019-03-22T11:37:33.998Z,15.30
2019-03-22T11:40:02.466Z,17.10
2019-03-22T11:42:30.894Z,16.67
2019-03-22T11:44:59.308Z,16.07
2019-03-22T11:47:27.683Z,14.90
2019-03-22T11:49:56.131Z,15.20
2019-03-22T11:52:24.572Z,15.37
2019-03-22T11:54:52.998Z,17.43
2019-03-22T11:57:21.408Z,14.90
2019-03-22T11:59:49.993Z,18.70
2019-03-22T12:02:22.365Z,19.97
2019-03-22T12:04:48.553Z,17.07
2019-03-22T12:07:16.989Z,17.63
2019-03-22T12:09:45.518Z,15.87
2019-03-22T12:12:13.936Z,16.33
2019-03-22T12:14:42.395Z,19.63
2019-03-22T12:17:10.798Z,20.70
2019-03-22T12:19:39.241Z,24.63
2019-03-22T12:22:07.624Z,18.40
2019-03-22T12:24:36.001Z,17.43
2019-03-22T12:27:04.461Z,16.27
2019-03-22T12:29:34.301Z,17.37
2019-03-22T12:32:02.758Z,18.10
2019-03-22T12:34:31.137Z,18.20
2019-03-22T12:36:59.472Z,16.70
2019-03-22T12:39:27.896Z,16.63
2019-03-22T12:41:56.585Z,17.73
2019-03-22T12:44:25.050Z,17.27
2019-03-22T12:46:53.402Z,20.70
2019-03-22T12:49:21.843Z,16.93
2019-03-22T12:51:50.295Z,16.33
2019-03-22T12:54:18.742Z,18.43
2019-03-22T12:56:47.225Z,20.43
2019-03-22T12:59:15.687Z,18.37
2019-03-22T13:01:44.106Z,16.57
2019-03-22T13:04:12.524Z,17.07
2019-03-22T13:06:41.044Z,16.50
2019-03-22T13:09:09.547Z,15.87
2019-03-22T13:11:37.992Z,19.90
2019-03-22T13:14:07.342Z,15.57
2019-03-22T13:16:35.744Z,17.07
2019-03-22T13:19:04.203Z,16.73
2019-03-22T13:21:32.539Z,16.30
2019-03-22T13:24:00.967Z,17.17
2019-03-22T13:26:29.353Z,17.10
2019-03-22T13:28:57.726Z,16.83
2019-03-22T13:31:26.154Z,17.80
2019-03-22T13:33:54.547Z,16.40
2019-03-22T13:36:22.914Z,16.00
2019-03-22T13:38:51.418Z,17.33
2019-03-22T13:41:19.852Z,16.00
2019-03-22T13:43:48.302Z,16.87
2019-03-22T13:46:16.756Z,15.77
2019-03-22T13:48:45.208Z,16.67
2019-03-22T13:51:13.660Z,18.63
2019-03-22T13:53:42.013Z,15.60
2019-03-22T13:56:11.163Z,16.20
2019-03-22T13:58:39.685Z,16.00
2019-03-22T14:01:08.005Z,14.43
2019-03-22T14:03:36.400Z,16.63
2019-03-22T14:06:05.085Z,14.47
2019-03-22T14:08:33.418Z,13.90
2019-03-22T14:11:04.639Z,14.67
2019-03-22T14:13:32.970Z,16.77
2019-03-22T14:16:01.861Z,14.70
2019-03-22T14:18:32.501Z,15.20
2019-03-22T14:21:00.473Z,15.00
2019-03-22T14:23:28.792Z,17.33
2019-03-22T14:25:57.224Z,17.00
2019-03-22T14:28:25.673Z,15.10
2019-03-22T14:30:54.175Z,15.53
2019-03-22T14:33:22.602Z,15.33
2019-03-22T14:35:51.225Z,15.43
2019-03-22T14:38:19.570Z,15.13
2019-03-22T14:40:50.695Z,18.77
2019-03-22T14:43:19.230Z,16.70
2019-03-22T14:45:47.598Z,19.20
2019-03-22T14:48:15.987Z,15.53
2019-03-22T14:50:44.423Z,17.20
2019-03-22T14:53:12.879Z,15.87
2019-03-22T14:55:41.286Z,18.70
2019-03-22T14:58:09.748Z,15.30
2019-03-22T15:00:38.110Z,17.50
2019-03-22T15:03:24.113Z,16.13
2019-03-22T15:05:53.175Z,16.20
2019-03-22T15:08:21.589Z,16.53
2019-03-22T15:10:49.999Z,16.50
2019-03-22T15:13:18.892Z,17.33
2019-03-22T15:15:58.021Z,19.60
2019-03-22T15:18:39.572Z,17.43
2019-03-22T15:21:38.799Z,17.03
2019-03-22T15:24:26.170Z,16.47
2019-03-22T15:27:12.261Z,15.87
2019-03-22T15:29:59.669Z,16.30
2019-03-22T15:32:53.106Z,16.10
2019-03-22T15:35:39.102Z,16.73
2019-03-22T15:38:41.689Z,15.60
2019-03-22T15:41:10.199Z,16.97
2019-03-22T15:43:38.598Z,18.63
2019-03-22T15:46:06.993Z,15.73
2019-03-22T15:48:35.339Z,15.30
2019-03-22T15:51:03.815Z,16.00
2019-03-22T15:53:32.161Z,15.93
2019-03-22T15:56:00.526Z,15.50
2019-03-22T15:58:28.881Z,15.37
2019-03-22T16:00:57.456Z,16.40
2019-03-22T16:03:25.877Z,15.03
2019-03-22T16:05:54.215Z,14.47
2019-03-22T16:08:22.674Z,15.60
2019-03-22T16:10:51.071Z,16.10
2019-03-22T16:13:19.481Z,17.17
2019-03-22T16:15:47.891Z,15.73
2019-03-22T16:18:16.252Z,14.50
2019-03-22T16:20:44.645Z,15.97
2019-03-22T16:23:13.027Z,14.63
2019-03-22T16:25:41.463Z,14.60
2019-03-22T16:28:09.881Z,16.00
2019-03-22T16:30:38.344Z,14.40
2019-03-22T16:33:06.769Z,15.00
2019-03-22T16:35:35.198Z,14.70
2019-03-22T16:38:03.563Z,14.30
2019-03-22T16:40:31.976Z,13.57
2019-03-22T16:43:00.690Z,14.77
2019-03-22T16:45:38.809Z,17.53
2019-03-22T16:48:07.275Z,15.40
2019-03-22T16:50:35.670Z,15.07
2019-03-22T16:53:04.176Z,14.70
2019-03-22T16:55:32.459Z,14.13
2019-03-22T16:58:00.957Z,15.20
2019-03-22T17:00:29.420Z,13.80
2019-03-22T17:02:57.840Z,13.37
2019-03-22T17:05:26.572Z,15.00
2019-03-22T17:07:54.950Z,15.00
2019-03-22T17:10:23.618Z,17.30
2019-03-22T17:12:52.109Z,15.70
2019-03-22T17:15:20.510Z,14.30
2019-03-22T17:17:48.885Z,17.67
2019-03-22T17:20:17.279Z,16.00
2019-03-22T17:22:45.678Z,14.53
2019-03-22T17:25:14.375Z,15.20
2019-03-22T17:27:42.810Z,13.80
2019-03-22T17:30:11.567Z,15.63
2019-03-22T17:32:39.973Z,13.97
2019-03-22T17:35:08.530Z,14.10
2019-03-22T17:37:40.098Z,15.00
2019-03-22T17:40:08.522Z,15.77
2019-03-22T17:42:37.262Z,13.93
2019-03-22T17:45:05.751Z,16.27
2019-03-22T17:47:34.208Z,16.60
2019-03-22T17:50:02.755Z,15.83
2019-03-22T17:52:32.427Z,16.23
2019-03-22T17:55:00.993Z,18.47
2019-03-22T17:57:32.215Z,17.10
2019-03-22T18:00:00.758Z,16.17
2019-03-22T18:02:29.142Z,16.50
2019-03-22T18:05:00.579Z,18.67
2019-03-22T18:07:29.089Z,19.33
2019-03-22T18:09:57.407Z,18.30
2019-03-22T18:12:26.038Z,22.97
2019-03-22T18:14:54.471Z,19.67
2019-03-22T18:17:25.912Z,17.87
2019-03-22T18:19:54.268Z,16.87
2019-03-22T18:22:22.751Z,26.20
2019-03-22T18:24:51.277Z,20.03
2019-03-22T18:27:19.729Z,20.80
2019-03-22T18:29:48.239Z,21.83
2019-03-22T18:32:16.791Z,17.97
2019-03-22T18:34:45.172Z,16.33
2019-03-22T18:37:13.927Z,16.87
2019-03-22T18:39:42.230Z,14.63
2019-03-22T18:42:13.704Z,16.07
2019-03-22T18:44:42.339Z,16.70
2019-03-22T18:47:10.778Z,19.83
2019-03-22T18:49:42.265Z,28.00
2019-03-22T18:52:11.010Z,26.70
2019-03-22T18:54:39.296Z,25.40
2019-03-22T18:57:07.656Z,24.30
2019-03-22T18:59:39.107Z,22.07
2019-03-22T19:02:07.511Z,19.97
2019-03-22T19:04:43.983Z,19.73
2019-03-22T19:07:05.928Z,23.13
2019-03-22T19:09:34.333Z,21.83
2019-03-22T19:12:02.778Z,23.77
2019-03-22T19:14:31.344Z,20.07
2019-03-22T19:17:02.518Z,22.80
2019-03-22T19:19:33.851Z,23.77
2019-03-22T19:22:02.267Z,24.17
2019-03-22T19:24:30.645Z,20.43
2019-03-22T19:26:59.082Z,19.30
2019-03-22T19:29:27.496Z,20.90
2019-03-22T19:32:00.308Z,23.20
2019-03-22T19:34:29.077Z,18.60
2019-03-22T19:36:57.561Z,17.70
2019-03-22T19:39:28.958Z,21.57
2019-03-22T19:41:57.258Z,17.37
2019-03-22T19:44:25.752Z,18.60
2019-03-22T19:46:54.170Z,16.17
2019-03-22T19:49:25.601Z,16.97
2019-03-22T19:51:54.033Z,18.30
2019-03-22T19:54:22.530Z,18.40
2019-03-22T19:56:51.048Z,17.87
2019-03-22T19:59:19.503Z,19.00
2019-03-22T20:01:50.886Z,17.47
2019-03-22T20:04:19.316Z,17.17
2019-03-22T20:06:47.712Z,17.47
2019-03-22T20:09:16.216Z,19.23
2019-03-22T20:11:44.655Z,21.90
2019-03-22T20:14:13.004Z,19.53
2019-03-22T20:16:51.067Z,18.20
2019-03-22T20:19:19.641Z,15.60
2019-03-22T20:21:47.984Z,17.20
2019-03-22T20:24:19.490Z,22.13
2019-03-22T20:26:48.191Z,16.43
2019-03-22T20:29:16.542Z,19.70
2019-03-22T20:31:44.902Z,16.10
2019-03-22T20:34:13.326Z,17.67
2019-03-22T20:36:43.736Z,19.30
2019-03-22T20:39:12.165Z,17.73
2019-03-22T20:41:40.934Z,16.90
2019-03-22T20:44:09.265Z,15.77
2019-03-22T20:46:37.617Z,21.07
2019-03-22T20:49:06.030Z,16.90
2019-03-22T20:51:34.392Z,15.27
2019-03-22T20:54:02.696Z,14.63
2019-03-22T20:56:31.205Z,18.53
2019-03-22T20:58:59.484Z,15.20
2019-03-22T21:01:27.842Z,15.63
2019-03-22T21:03:56.170Z,14.23
2019-03-22T21:06:24.759Z,14.10
2019-03-22T21:08:53.104Z,16.50
2019-03-22T21:11:24.463Z,16.83
2019-03-22T21:13:52.861Z,16.50
2019-03-22T21:16:21.373Z,15.93
2019-03-22T21:18:52.893Z,17.27
2019-03-22T21:21:21.399Z,18.97
2019-03-22T21:23:49.804Z,20.70
2019-03-22T21:26:18.149Z,18.83
2019-03-22T21:28:46.619Z,17.60
2019-03-22T21:31:15.015Z,18.87
2019-03-22T21:33:43.388Z,16.67
2019-03-22T21:36:12.157Z,16.37
2019-03-22T21:38:40.527Z,18.20
2019-03-22T21:41:09.331Z,17.50
2019-03-22T21:43:37.701Z,20.87
2019-03-22T21:46:06.120Z,17.77
2019-03-22T21:48:34.542Z,19.90
2019-03-22T21:51:02.959Z,19.73
2019-03-22T21:53:34.403Z,18.87
2019-03-22T21:56:02.782Z,19.47
2019-03-22T21:58:31.249Z,16.80
2019-03-22T22:00:59.635Z,16.50
2019-03-22T22:03:37.028Z,18.27
2019-03-22T22:06:05.405Z,19.40
2019-03-22T22:08:33.747Z,16.87
2019-03-22T22:11:02.161Z,17.57
2019-03-22T22:13:33.353Z,15.37
2019-03-22T22:16:01.897Z,17.33
2019-03-22T22:18:30.280Z,17.10
2019-03-22T22:20:58.857Z,16.27
2019-03-22T22:23:27.308Z,18.27
2019-03-22T22:25:55.866Z,17.47
2019-03-22T22:28:24.194Z,20.30
2019-03-22T22:30:52.808Z,17.00
2019-03-22T22:33:21.296Z,15.17
2019-03-22T22:35:58.268Z,16.87
2019-03-22T22:38:19.730Z,18.13
2019-03-22T22:40:48.151Z,17.90
2019-03-22T22:43:16.528Z,18.83
2019-03-22T22:45:47.878Z,20.53
2019-03-22T22:48:16.622Z,16.70
2019-03-22T22:50:45.226Z,17.03
2019-03-22T22:53:13.657Z,17.37
2019-03-22T22:55:42.242Z,16.57
2019-03-22T22:58:10.664Z,16.17
2019-03-22T23:00:39.514Z,16.90
2019-03-22T23:03:07.932Z,19.63
2019-03-22T23:05:36.340Z,15.47
2019-03-22T23:08:04.810Z,16.10
2019-03-22T23:10:33.247Z,16.00
2019-03-22T23:13:01.740Z,17.07
2019-03-22T23:15:30.175Z,16.83
2019-03-22T23:17:58.583Z,16.80
2019-03-22T23:20:26.958Z,18.73
2019-03-22T23:22:55.444Z,19.93
2019-03-22T23:25:24.005Z,18.70
2019-03-22T23:27:52.399Z,18.40
2019-03-22T23:30:20.811Z,17.77
2019-03-22T23:32:49.339Z,18.33
2019-03-22T23:35:17.899Z,18.07
2019-03-22T23:37:46.305Z,17.33
2019-03-22T23:40:14.660Z,17.60
2019-03-22T23:42:43.087Z,21.23
2019-03-22T23:45:11.587Z,18.63
2019-03-22T23:47:40.018Z,18.30
2019-03-22T23:50:08.477Z,18.53
2019-03-22T23:52:36.894Z,19.07
2019-03-22T23:55:05.391Z,19.90
2019-03-22T23:57:33.770Z,18.37
